createdAt,value
2023-02-25T00:02:04.287Z,5.00
2023-02-25T00:05:04.569Z,5.00
2023-02-25T00:07:50.248Z,5.10
2023-02-25T00:10:51.339Z,5.00
2023-02-25T00:13:40.231Z,5.10
2023-02-25T00:16:47.830Z,5.20
2023-02-25T00:19:43.271Z,5.10
2023-02-25T00:22:50.242Z,5.20
2023-02-25T00:25:47.517Z,5.20
2023-02-25T00:28:43.684Z,5.30
2023-02-25T00:31:48.525Z,5.20
2023-02-25T00:34:40.372Z,5.10
2023-02-25T00:38:22.312Z,5.10
2023-02-25T00:41:29.740Z,5.10
2023-02-25T00:44:37.513Z,5.10
2023-02-25T00:50:37.689Z,5.20
2023-02-25T00:53:38.576Z,5.10
2023-02-25T00:56:36.396Z,5.10
2023-02-25T00:59:23.622Z,5.00
2023-02-25T01:02:11.869Z,5.10
2023-02-25T01:05:01.849Z,5.10
2023-02-25T01:08:11.665Z,5.00
2023-02-25T01:10:58.926Z,5.00
2023-02-25T01:13:53.280Z,5.00
2023-02-25T01:16:56.609Z,5.00
2023-02-25T01:19:50.420Z,4.90
2023-02-25T01:22:44.699Z,5.00
2023-02-25T01:25:35.437Z,5.00
2023-02-25T01:28:21.225Z,4.80
2023-02-25T01:31:17.131Z,4.80
2023-02-25T01:34:07.290Z,4.80
2023-02-25T01:36:57.985Z,4.80
2023-02-25T01:39:49.394Z,4.90
2023-02-25T01:42:39.092Z,4.90
2023-02-25T01:45:29.456Z,5.00
2023-02-25T01:48:28.777Z,5.10
2023-02-25T01:51:23.476Z,5.10
2023-02-25T01:54:29.983Z,5.20
2023-02-25T01:57:19.327Z,5.20
2023-02-25T02:00:17.408Z,5.30
2023-02-25T02:03:06.840Z,5.20
2023-02-25T02:06:20.155Z,5.20
2023-02-25T02:09:17.007Z,5.00
2023-02-25T02:12:10.244Z,4.90
2023-02-25T02:15:11.002Z,4.80
2023-02-25T02:18:03.197Z,4.80
2023-02-25T02:21:11.817Z,4.60
2023-02-25T02:23:57.389Z,4.50
2023-02-25T02:26:52.031Z,4.60
2023-02-25T02:30:05.408Z,4.60
2023-02-25T02:32:55.210Z,4.70
2023-02-25T02:35:53.233Z,4.70
2023-02-25T02:38:44.394Z,4.60
2023-02-25T02:41:36.836Z,4.60
2023-02-25T02:44:31.205Z,4.70
2023-02-25T02:47:25.043Z,4.80
2023-02-25T02:50:20.490Z,4.70
2023-02-25T02:53:14.376Z,4.70
2023-02-25T02:56:02.399Z,4.80
2023-02-25T02:59:05.354Z,4.80
2023-02-25T03:02:36.922Z,4.70
2023-02-25T03:05:26.478Z,4.80
2023-02-25T03:08:17.900Z,4.70
2023-02-25T03:11:04.871Z,4.60
2023-02-25T03:13:51.691Z,4.60
2023-02-25T03:16:48.995Z,4.60
2023-02-25T03:20:08.463Z,4.60
2023-02-25T03:22:56.562Z,4.70
2023-02-25T03:25:48.445Z,4.80
2023-02-25T03:28:35.062Z,4.80
2023-02-25T03:31:33.415Z,4.80
2023-02-25T03:34:28.243Z,4.80
2023-02-25T03:37:20.743Z,4.70
2023-02-25T03:40:11.986Z,4.60
2023-02-25T03:43:08.496Z,4.70
2023-02-25T03:45:56.484Z,4.60
2023-02-25T03:48:42.567Z,4.70
2023-02-25T03:51:33.053Z,4.70
2023-02-25T03:54:18.460Z,4.50
2023-02-25T03:57:03.808Z,4.40
2023-02-25T03:59:49.318Z,4.40
2023-02-25T04:02:34.860Z,4.40
2023-02-25T04:05:21.657Z,4.40
2023-02-25T04:08:15.220Z,4.40
2023-02-25T04:11:00.183Z,4.30
2023-02-25T04:13:45.456Z,4.30
2023-02-25T04:16:31.333Z,4.30
2023-02-25T04:19:16.931Z,4.30
2023-02-25T04:22:02.375Z,4.30
2023-02-25T04:24:47.740Z,4.30
2023-02-25T04:27:33.413Z,4.10
2023-02-25T04:30:18.794Z,4.10
2023-02-25T04:33:04.523Z,4.20
2023-02-25T04:35:50.889Z,4.40
2023-02-25T04:38:35.956Z,4.40
2023-02-25T04:41:21.614Z,4.50
2023-02-25T04:44:08.654Z,4.40
2023-02-25T04:46:53.841Z,4.50
2023-02-25T04:49:45.023Z,4.70
2023-02-25T04:52:30.194Z,4.90
2023-02-25T04:55:15.970Z,5.00
2023-02-25T04:58:01.097Z,5.00
2023-02-25T05:00:49.086Z,5.00
2023-02-25T05:03:34.628Z,4.90
2023-02-25T05:06:19.889Z,4.80
2023-02-25T05:09:05.773Z,4.60
2023-02-25T05:11:51.041Z,4.70
2023-02-25T05:14:37.462Z,4.60
2023-02-25T05:17:22.724Z,4.50
2023-02-25T05:20:12.653Z,4.50
2023-02-25T05:22:58.278Z,4.50
2023-02-25T05:25:43.705Z,4.30
2023-02-25T05:28:29.082Z,4.20
2023-02-25T05:31:14.735Z,4.10
2023-02-25T05:34:00.265Z,4.10
2023-02-25T05:39:32.415Z,4.30
2023-02-25T05:42:17.750Z,4.20
2023-02-25T05:45:03.655Z,4.20
2023-02-25T05:47:49.028Z,4.20
2023-02-25T05:50:41.766Z,4.20
2023-02-25T05:53:27.020Z,4.30
2023-02-25T05:56:14.859Z,4.10
2023-02-25T05:59:00.115Z,4.20
2023-02-25T06:01:45.441Z,4.10
2023-02-25T06:04:31.036Z,4.20
2023-02-25T06:07:16.392Z,4.30
2023-02-25T06:10:01.827Z,4.40
2023-02-25T06:12:46.986Z,4.40
2023-02-25T06:15:32.400Z,4.30
2023-02-25T06:18:17.975Z,4.30
2023-02-25T06:21:05.486Z,4.40
2023-02-25T06:23:52.308Z,4.40
2023-02-25T06:26:41.736Z,4.20
2023-02-25T06:29:26.819Z,4.30
2023-02-25T06:32:12.323Z,4.80
2023-02-25T06:34:57.640Z,4.20
2023-02-25T06:37:43.060Z,4.30
2023-02-25T06:40:33.447Z,4.10
2023-02-25T06:43:18.932Z,4.20
2023-02-25T06:46:10.049Z,4.40
2023-02-25T06:48:55.673Z,4.30
2023-02-25T06:51:40.701Z,4.30
2023-02-25T06:54:27.901Z,4.40
2023-02-25T06:57:12.890Z,4.50
2023-02-25T06:59:58.518Z,4.60
2023-02-25T07:02:43.587Z,4.60
2023-02-25T07:05:29.241Z,4.60
2023-02-25T07:08:14.654Z,4.60
2023-02-25T07:11:19.200Z,4.60
2023-02-25T07:14:06.415Z,4.40
2023-02-25T07:16:52.240Z,4.40
2023-02-25T07:19:37.807Z,4.30
2023-02-25T07:22:24.277Z,4.30
2023-02-25T07:25:13.369Z,4.40
2023-02-25T07:27:58.709Z,4.40
2023-02-25T07:30:44.032Z,4.50
2023-02-25T07:33:30.486Z,4.60
2023-02-25T07:36:16.591Z,4.60
2023-02-25T07:39:06.762Z,4.60
2023-02-25T07:41:52.280Z,4.50
2023-02-25T07:44:37.697Z,4.50
2023-02-25T07:47:23.121Z,4.50
2023-02-25T07:50:12.654Z,4.40
2023-02-25T07:52:58.472Z,4.20
2023-02-25T07:55:44.896Z,4.20
2023-02-25T07:58:30.330Z,4.30
2023-02-25T08:01:24.600Z,4.20
2023-02-25T08:04:10.600Z,4.30
2023-02-25T08:06:55.992Z,4.50
2023-02-25T08:09:41.802Z,4.60
2023-02-25T08:12:27.512Z,4.60
2023-02-25T08:15:13.166Z,4.50
2023-02-25T08:17:58.809Z,4.60
2023-02-25T08:20:47.981Z,4.50
2023-02-25T08:23:33.068Z,4.50
2023-02-25T08:26:19.285Z,4.60
2023-02-25T08:29:04.777Z,4.50
2023-02-25T08:31:51.898Z,4.40
2023-02-25T08:34:37.719Z,4.40
2023-02-25T08:37:25.573Z,4.40
2023-02-25T08:40:11.671Z,4.40
2023-02-25T08:42:57.045Z,4.40
2023-02-25T08:45:42.648Z,4.60
2023-02-25T08:48:28.017Z,4.60
2023-02-25T08:51:14.808Z,4.50
2023-02-25T08:54:06.688Z,4.50
2023-02-25T08:56:52.274Z,4.50
2023-02-25T08:59:37.766Z,4.40
2023-02-25T09:02:24.240Z,4.40
2023-02-25T09:05:09.676Z,4.30
2023-02-25T09:07:55.528Z,4.20
2023-02-25T09:10:49.959Z,4.40
2023-02-25T09:13:36.342Z,4.70
2023-02-25T09:16:22.098Z,5.00
2023-02-25T09:19:07.630Z,5.10
2023-02-25T09:21:52.902Z,5.30
2023-02-25T09:24:38.184Z,5.40
2023-02-25T09:27:23.593Z,5.50
2023-02-25T09:30:09.976Z,5.40
2023-02-25T09:32:55.477Z,5.10
2023-02-25T09:35:43.604Z,4.80
2023-02-25T09:38:28.780Z,4.80
2023-02-25T09:41:35.159Z,5.00
2023-02-25T09:44:22.432Z,5.10
2023-02-25T09:47:33.683Z,5.30
2023-02-25T09:50:42.571Z,5.50
2023-02-25T09:53:43.110Z,5.40
2023-02-25T09:56:30.304Z,5.20
2023-02-25T09:59:18.995Z,5.20
2023-02-25T10:02:29.452Z,5.00
2023-02-25T10:05:25.310Z,4.90
2023-02-25T10:08:38.099Z,5.00
2023-02-25T10:11:49.857Z,5.10
2023-02-25T10:14:51.579Z,5.10
2023-02-25T10:17:43.395Z,5.20
2023-02-25T10:20:49.358Z,5.40
2023-02-25T10:23:52.712Z,5.80
2023-02-25T10:26:42.695Z,5.60
2023-02-25T10:29:49.761Z,5.60
2023-02-25T10:32:42.678Z,5.50
2023-02-25T10:35:34.559Z,5.60
2023-02-25T10:38:22.420Z,5.90
2023-02-25T10:41:11.663Z,6.10
2023-02-25T10:43:58.249Z,6.10
2023-02-25T10:47:06.149Z,5.80
2023-02-25T10:50:14.297Z,5.60
2023-02-25T10:53:05.876Z,5.60
2023-02-25T10:55:52.981Z,5.40
2023-02-25T10:58:44.341Z,5.10
2023-02-25T11:01:38.013Z,4.90
2023-02-25T11:04:28.562Z,4.80
2023-02-25T11:07:34.088Z,4.80
2023-02-25T11:10:22.457Z,4.80
2023-02-25T11:13:28.714Z,5.00
2023-02-25T11:16:14.745Z,5.40
2023-02-25T11:19:12.877Z,5.60
2023-02-25T11:22:05.681Z,5.80
2023-02-25T11:25:03.446Z,6.00
2023-02-25T11:27:55.875Z,6.00
2023-02-25T11:30:41.282Z,5.80
2023-02-25T11:33:33.453Z,5.70
2023-02-25T11:36:30.927Z,5.60
2023-02-25T11:39:21.351Z,5.50
2023-02-25T11:42:24.838Z,5.40
2023-02-25T11:45:17.366Z,5.10
2023-02-25T11:48:21.089Z,5.10
2023-02-25T11:51:17.353Z,5.50
2023-02-25T11:54:25.989Z,5.50
2023-02-25T11:57:25.737Z,5.20
2023-02-25T12:00:35.304Z,5.10
2023-02-25T12:03:36.611Z,5.10
2023-02-25T12:06:41.166Z,5.10
2023-02-25T12:09:53.409Z,5.20
2023-02-25T12:13:16.433Z,5.20
2023-02-25T12:16:16.854Z,5.20
2023-02-25T12:19:38.759Z,5.20
2023-02-25T12:23:01.655Z,5.10
2023-02-25T12:26:15.585Z,5.20
2023-02-25T12:29:29.528Z,5.30
2023-02-25T12:32:33.040Z,5.40
2023-02-25T12:35:27.334Z,5.50
2023-02-25T12:38:52.627Z,5.60
2023-02-25T12:41:55.655Z,5.60
2023-02-25T12:45:03.268Z,5.60
2023-02-25T12:48:26.685Z,5.50
2023-02-25T12:51:45.811Z,5.60
2023-02-25T12:54:51.485Z,5.80
2023-02-25T12:57:55.234Z,6.00
2023-02-25T13:01:23.656Z,6.00
2023-02-25T13:04:40.174Z,6.20
2023-02-25T13:07:48.169Z,6.40
2023-02-25T13:10:57.721Z,6.80
2023-02-25T13:13:48.958Z,7.00
2023-02-25T13:16:39.878Z,7.20
2023-02-25T13:19:41.821Z,7.40
2023-02-25T13:22:29.863Z,7.40
2023-02-25T13:25:19.748Z,7.20
2023-02-25T13:28:10.436Z,7.20
2023-02-25T13:31:05.710Z,7.00
2023-02-25T13:34:07.978Z,6.90
2023-02-25T13:36:55.992Z,6.80
2023-02-25T13:40:05.243Z,6.50
2023-02-25T13:43:17.544Z,6.10
2023-02-25T13:46:19.801Z,5.90
2023-02-25T13:49:08.020Z,6.00
2023-02-25T13:52:46.224Z,6.10
2023-02-25T13:55:55.733Z,6.10
2023-02-25T13:58:54.694Z,6.30
2023-02-25T14:02:02.604Z,6.50
2023-02-25T14:05:41.465Z,6.50
2023-02-25T14:08:37.975Z,6.60
2023-02-25T14:12:11.982Z,6.70
2023-02-25T14:15:33.146Z,6.70
2023-02-25T14:18:31.818Z,6.70
2023-02-25T14:21:43.684Z,6.80
2023-02-25T14:24:50.787Z,7.40
2023-02-25T14:28:13.417Z,7.80
2023-02-25T14:31:12.931Z,8.10
2023-02-25T14:34:23.772Z,8.30
2023-02-25T14:37:38.518Z,8.60
2023-02-25T14:40:53.336Z,9.10
2023-02-25T14:43:39.012Z,9.00
2023-02-25T14:46:40.436Z,9.20
2023-02-25T14:49:48.539Z,9.30
2023-02-25T14:53:04.866Z,9.40
2023-02-25T14:56:19.094Z,9.20
2023-02-25T14:59:21.754Z,8.70
2023-02-25T15:02:35.184Z,8.10
2023-02-25T15:05:38.854Z,7.70
2023-02-25T15:09:04.905Z,7.60
2023-02-25T15:12:21.869Z,7.70
2023-02-25T15:15:23.706Z,7.60
2023-02-25T15:18:45.740Z,7.60
2023-02-25T15:21:39.743Z,7.40
2023-02-25T15:24:39.168Z,7.30
2023-02-25T15:27:36.256Z,7.10
2023-02-25T15:30:25.741Z,7.20
2023-02-25T15:33:41.857Z,7.30
2023-02-25T15:36:40.724Z,7.30
2023-02-25T15:39:41.639Z,7.30
2023-02-25T15:42:46.884Z,7.30
2023-02-25T15:45:36.904Z,7.20
2023-02-25T15:48:31.601Z,7.10
2023-02-25T15:51:44.437Z,7.10
2023-02-25T15:54:29.604Z,7.20
2023-02-25T15:57:26.878Z,7.00
2023-02-25T16:00:46.272Z,6.90
2023-02-25T16:03:31.691Z,6.80
2023-02-25T16:06:34.075Z,6.70
2023-02-25T16:09:20.031Z,6.40
2023-02-25T16:12:07.432Z,5.80
2023-02-25T16:14:55.148Z,5.80
2023-02-25T16:17:40.269Z,5.80
2023-02-25T16:20:34.500Z,5.80
2023-02-25T16:23:19.843Z,5.60
2023-02-25T16:26:27.889Z,5.40
2023-02-25T16:29:38.167Z,5.30
2023-02-25T16:32:41.182Z,5.40
2023-02-25T16:35:33.722Z,5.30
2023-02-25T16:38:38.034Z,5.40
2023-02-25T16:41:30.345Z,5.40
2023-02-25T16:44:30.373Z,5.40
2023-02-25T16:47:26.517Z,5.30
2023-02-25T16:50:14.152Z,5.30
2023-02-25T16:53:01.778Z,5.30
2023-02-25T16:55:47.634Z,5.30
2023-02-25T16:58:33.033Z,5.20
2023-02-25T17:01:22.852Z,5.20
2023-02-25T17:04:21.067Z,5.20
2023-02-25T17:07:13.890Z,5.10
2023-02-25T17:10:02.835Z,4.90
2023-02-25T17:12:48.255Z,4.70
2023-02-25T17:15:36.279Z,4.90
2023-02-25T17:18:45.628Z,5.00
2023-02-25T17:21:37.104Z,5.20
2023-02-25T17:24:27.012Z,5.20
2023-02-25T17:27:12.893Z,5.30
2023-02-25T17:29:58.182Z,5.30
2023-02-25T17:32:58.883Z,5.30
2023-02-25T17:35:45.952Z,5.30
2023-02-25T17:38:31.680Z,5.30
2023-02-25T17:41:21.802Z,5.20
2023-02-25T17:44:32.277Z,5.20
2023-02-25T17:47:33.676Z,5.60
2023-02-25T17:50:31.909Z,5.50
2023-02-25T17:53:38.452Z,5.40
2023-02-25T17:56:32.874Z,5.20
2023-02-25T17:59:35.531Z,5.10
2023-02-25T18:02:34.426Z,5.10
2023-02-25T18:05:23.527Z,5.00
2023-02-25T18:08:20.258Z,4.90
2023-02-25T18:11:35.147Z,5.00
2023-02-25T18:14:33.790Z,5.00
2023-02-25T18:17:32.194Z,5.00
2023-02-25T18:20:36.210Z,4.90
2023-02-25T18:23:25.276Z,4.90
2023-02-25T18:26:17.907Z,4.90
2023-02-25T18:29:09.517Z,4.80
2023-02-25T18:31:55.027Z,4.70
2023-02-25T18:34:40.425Z,4.70
2023-02-25T18:37:28.557Z,4.60
2023-02-25T18:40:24.516Z,4.60
2023-02-25T18:43:15.998Z,4.50
2023-02-25T18:46:01.769Z,4.50
2023-02-25T18:48:47.059Z,4.40
2023-02-25T18:51:33.002Z,4.40
2023-02-25T18:54:18.170Z,4.30
2023-02-25T18:57:03.644Z,4.30
2023-02-25T18:59:49.156Z,4.20
2023-02-25T19:03:04.577Z,4.30
2023-02-25T19:05:49.789Z,4.20
2023-02-25T19:08:34.942Z,4.00
2023-02-25T19:11:27.278Z,4.00
2023-02-25T19:14:17.653Z,4.10
2023-02-25T19:17:03.520Z,4.00
2023-02-25T19:19:48.997Z,3.90
2023-02-25T19:22:34.314Z,3.90
2023-02-25T19:25:23.244Z,3.90
2023-02-25T19:28:09.606Z,4.00
2023-02-25T19:30:55.566Z,4.10
2023-02-25T19:33:40.981Z,3.90
2023-02-25T19:36:26.939Z,3.80
2023-02-25T19:39:12.245Z,3.90
2023-02-25T19:41:57.628Z,3.90
2023-02-25T19:44:43.070Z,3.90
2023-02-25T19:47:28.878Z,3.90
2023-02-25T19:50:16.384Z,3.80
2023-02-25T19:53:03.028Z,3.90
2023-02-25T19:55:48.488Z,3.90
2023-02-25T19:58:34.194Z,3.70
2023-02-25T20:01:19.656Z,3.60
2023-02-25T20:04:06.250Z,3.60
2023-02-25T20:06:51.344Z,3.70
2023-02-25T20:09:36.948Z,3.70
2023-02-25T20:12:22.375Z,3.80
2023-02-25T20:15:08.725Z,3.80
2023-02-25T20:17:55.009Z,3.80
2023-02-25T20:20:44.014Z,3.80
2023-02-25T20:23:30.115Z,3.70
2023-02-25T20:26:18.453Z,3.70
2023-02-25T20:29:04.061Z,3.60
2023-02-25T20:31:49.276Z,3.50
2023-02-25T20:34:34.877Z,3.50
2023-02-25T20:37:23.120Z,3.60
2023-02-25T20:40:11.952Z,3.60
2023-02-25T20:42:57.177Z,3.60
2023-02-25T20:45:42.890Z,3.60
2023-02-25T20:48:31.333Z,3.70
2023-02-25T20:51:16.911Z,3.60
2023-02-25T20:54:03.714Z,3.60
2023-02-25T20:56:49.541Z,3.70
2023-02-25T20:59:35.121Z,3.70
2023-02-25T21:02:21.206Z,3.80
2023-02-25T21:05:06.715Z,3.80
2023-02-25T21:07:52.140Z,3.80
2023-02-25T21:10:37.474Z,3.90
2023-02-25T21:13:22.955Z,3.90
2023-02-25T21:16:08.514Z,3.90
2023-02-25T21:18:54.087Z,3.80
2023-02-25T21:21:39.324Z,3.80
2023-02-25T21:24:27.151Z,3.70
2023-02-25T21:27:12.555Z,3.70
2023-02-25T21:29:57.944Z,3.70
2023-02-25T21:32:43.330Z,3.70
2023-02-25T21:35:28.702Z,3.60
2023-02-25T21:38:14.598Z,3.60
2023-02-25T21:41:14.996Z,3.70
2023-02-25T21:44:00.555Z,3.80
2023-02-25T21:46:45.917Z,3.90
2023-02-25T21:49:31.897Z,3.90
2023-02-25T21:52:18.666Z,3.80
2023-02-25T21:55:04.353Z,3.50
2023-02-25T21:57:49.552Z,3.30
2023-02-25T22:00:34.904Z,3.00
2023-02-25T22:03:20.366Z,3.00
2023-02-25T22:06:05.968Z,3.00
2023-02-25T22:08:52.354Z,2.90
2023-02-25T22:11:38.518Z,2.90
2023-02-25T22:14:24.636Z,3.00
2023-02-25T22:17:10.062Z,2.90
2023-02-25T22:19:55.535Z,2.90
2023-02-25T22:22:40.790Z,2.90
2023-02-25T22:25:26.203Z,3.00
2023-02-25T22:28:11.607Z,3.00
2023-02-25T22:30:57.371Z,3.00
2023-02-25T22:33:43.282Z,3.00
2023-02-25T22:36:28.770Z,2.90
2023-02-25T22:39:13.874Z,2.80
2023-02-25T22:41:59.222Z,2.60
2023-02-25T22:44:44.796Z,2.70
2023-02-25T22:47:30.545Z,2.60
2023-02-25T22:50:15.992Z,2.70
2023-02-25T22:53:01.149Z,2.80
2023-02-25T22:55:46.454Z,2.70
2023-02-25T22:58:32.202Z,2.80
2023-02-25T23:01:20.107Z,2.80
2023-02-25T23:04:05.666Z,2.70
2023-02-25T23:06:51.750Z,2.70
2023-02-25T23:09:36.718Z,2.60
2023-02-25T23:12:22.177Z,2.70
2023-02-25T23:15:09.393Z,2.70
2023-02-25T23:17:55.897Z,2.60
2023-02-25T23:20:41.626Z,2.30
2023-02-25T23:23:38.168Z,2.10
2023-02-25T23:26:29.064Z,2.00
2023-02-25T23:29:14.961Z,1.90
2023-02-25T23:34:46.128Z,1.90
2023-02-25T23:37:32.318Z,1.90
2023-02-25T23:40:18.010Z,1.70
2023-02-25T23:43:03.614Z,1.80
2023-02-25T23:45:49.097Z,1.90
2023-02-25T23:48:34.585Z,1.90
2023-02-25T23:51:19.814Z,2.00
2023-02-25T23:54:06.302Z,2.00
2023-02-25T23:56:51.715Z,2.00
2023-02-25T23:59:37.344Z,2.00
